Time;durP1;ratioP1;P1;durP2;ratioP2;P2;SDS_P1;SDS_P2;PMS_P1;PMS_P2;Temp;Humidity;BMP_temperature;BMP_pressure;BME280_temperature;BME280_humidity;BME280_pressure;Samples;Min_cycle;Max_cycle;Signal;HPM_P1;HPM_P2
2022/10/18 00:00:20;;;;;;;8.57;4.37;;;;;;;;;;5040000;28;87954;-53
2022/10/18 00:02:48;;;;;;;10.83;3.70;;;;;;;;;;5040506;27;87725;-52
2022/10/18 00:05:18;;;;;;;7.77;3.50;;;;;;;;;;5043055;27;87070;-52
2022/10/18 00:07:46;;;;;;;7.57;3.80;;;;;;;;;;5047130;27;87081;-53
2022/10/18 00:10:14;;;;;;;6.47;3.43;;;;;;;;;;5039743;27;88325;-52
2022/10/18 00:12:43;;;;;;;10.67;3.43;;;;;;;;;;5040657;27;87807;-52
2022/10/18 00:15:11;;;;;;;9.33;3.37;;;;;;;;;;5043823;27;87049;-52
2022/10/18 00:17:39;;;;;;;9.33;3.40;;;;;;;;;;5060229;27;86982;-52
2022/10/18 00:20:08;;;;;;;3.83;2.53;;;;;;;;;;5059917;27;89081;-53
2022/10/18 00:22:38;;;;;;;12.90;3.57;;;;;;;;;;5045662;27;88548;-52
2022/10/18 00:25:07;;;;;;;9.33;3.37;;;;;;;;;;5060333;27;86949;-53
2022/10/18 00:27:35;;;;;;;4.17;2.43;;;;;;;;;;5040875;27;87947;-52
2022/10/18 00:30:03;;;;;;;6.27;3.30;;;;;;;;;;5040224;28;89012;-52
2022/10/18 00:32:32;;;;;;;4.73;2.23;;;;;;;;;;5041400;27;87585;-53
2022/10/18 00:35:00;;;;;;;6.50;2.80;;;;;;;;;;5040446;27;87954;-53
2022/10/18 00:37:29;;;;;;;5.43;2.17;;;;;;;;;;5060553;27;86244;-53
2022/10/18 00:39:58;;;;;;;7.23;2.83;;;;;;;;;;5061597;27;87015;-52
2022/10/18 00:42:27;;;;;;;7.70;1.93;;;;;;;;;;5048241;27;88591;-52
2022/10/18 00:45:17;;;;;;;6.00;2.00;;;;;;;;;;5044627;27;87955;-53
2022/10/18 00:47:46;;;;;;;5.20;2.60;;;;;;;;;;5044411;27;87028;-53
2022/10/18 00:50:15;;;;;;;8.67;2.53;;;;;;;;;;5044069;27;89135;-53
2022/10/18 00:52:44;;;;;;;2.87;2.13;;;;;;;;;;5044099;27;87605;-53
2022/10/18 00:55:13;;;;;;;6.13;2.40;;;;;;;;;;5043998;27;87027;-53
2022/10/18 00:57:42;;;;;;;3.80;2.23;;;;;;;;;;5043968;27;87019;-53
2022/10/18 01:00:11;;;;;;;6.00;2.57;;;;;;;;;;5043727;27;87902;-54
2022/10/18 01:02:39;;;;;;;3.27;2.53;;;;;;;;;;5043938;27;87586;-54
2022/10/18 01:05:08;;;;;;;8.23;2.10;;;;;;;;;;5044025;27;87019;-53
2022/10/18 01:07:43;;;;;;;6.53;1.97;;;;;;;;;;5043678;27;87051;-53
2022/10/18 01:10:18;;;;;;;2.37;1.93;;;;;;;;;;5042807;27;89204;-53
2022/10/18 01:12:48;;;;;;;3.13;1.83;;;;;;;;;;5042936;27;88555;-52
2022/10/18 01:15:20;;;;;;;3.13;2.03;;;;;;;;;;5045094;27;87042;-52
2022/10/18 01:17:51;;;;;;;3.00;2.23;;;;;;;;;;5043488;27;87195;-52
2022/10/18 01:20:37;;;;;;;2.73;1.87;;;;;;;;;;5043453;27;88179;-53
2022/10/18 01:23:06;;;;;;;3.83;1.87;;;;;;;;;;5042889;27;87617;-53
2022/10/18 01:25:39;;;;;;;3.83;1.67;;;;;;;;;;5043576;28;86989;-53
2022/10/18 01:28:14;;;;;;;1.73;1.43;;;;;;;;;;5043772;27;86171;-52
2022/10/18 01:30:46;;;;;;;6.60;1.83;;;;;;;;;;5043199;27;87904;-53
2022/10/18 01:33:17;;;;;;;2.87;1.90;;;;;;;;;;5043023;27;87698;-52
2022/10/18 01:35:47;;;;;;;3.50;1.83;;;;;;;;;;5043065;27;87883;-53
2022/10/18 01:38:16;;;;;;;2.07;1.57;;;;;;;;;;5043262;27;86958;-52
2022/10/18 01:40:45;;;;;;;2.33;1.37;;;;;;;;;;5043887;27;89049;-52
2022/10/18 01:43:13;;;;;;;2.57;1.37;;;;;;;;;;5063391;27;87836;-53
2022/10/18 01:45:42;;;;;;;2.10;1.73;;;;;;;;;;5062939;27;86951;-52
2022/10/18 01:48:12;;;;;;;3.63;1.33;;;;;;;;;;5054729;27;87021;-52
2022/10/18 01:50:40;;;;;;;2.00;1.23;;;;;;;;;;5043281;27;87983;-52
2022/10/18 01:53:21;;;;;;;2.83;1.60;;;;;;;;;;5043348;27;87873;-52
2022/10/18 01:55:51;;;;;;;1.73;1.33;;;;;;;;;;5046543;27;87932;-52
2022/10/18 01:58:21;;;;;;;4.60;2.00;;;;;;;;;;5054631;27;87075;-53
2022/10/18 02:00:50;;;;;;;2.00;1.33;;;;;;;;;;5051556;27;87974;-53
2022/10/18 02:03:21;;;;;;;2.90;0.90;;;;;;;;;;5062783;27;89135;-52
2022/10/18 02:05:52;;;;;;;6.03;1.33;;;;;;;;;;5062568;27;86845;-52
2022/10/18 02:08:22;;;;;;;2.60;1.77;;;;;;;;;;5042913;27;87005;-53
2022/10/18 02:10:51;;;;;;;3.03;1.73;;;;;;;;;;5042760;27;88004;-52
2022/10/18 02:13:20;;;;;;;3.40;1.50;;;;;;;;;;5042740;27;88793;-52
2022/10/18 02:15:49;;;;;;;2.30;1.50;;;;;;;;;;5042646;27;87006;-53
2022/10/18 02:18:19;;;;;;;5.10;1.60;;;;;;;;;;5043052;27;86292;-53
2022/10/18 02:20:48;;;;;;;1.63;1.33;;;;;;;;;;5042389;27;87731;-53
2022/10/18 02:23:17;;;;;;;2.40;1.30;;;;;;;;;;5042967;27;87533;-52
2022/10/18 02:25:45;;;;;;;2.67;1.40;;;;;;;;;;5041792;27;87898;-52
2022/10/18 02:28:13;;;;;;;1.40;1.10;;;;;;;;;;5042567;27;87091;-53
2022/10/18 02:30:42;;;;;;;1.53;0.93;;;;;;;;;;5041813;27;89358;-53
2022/10/18 02:33:12;;;;;;;2.07;1.40;;;;;;;;;;5042589;27;87547;-53
2022/10/18 02:35:40;;;;;;;1.40;1.03;;;;;;;;;;5041591;27;87122;-52
2022/10/18 02:38:10;;;;;;;1.90;1.00;;;;;;;;;;5042149;27;86979;-52
2022/10/18 02:40:38;;;;;;;1.73;1.10;;;;;;;;;;5042591;27;89269;-53
2022/10/18 02:43:07;;;;;;;1.47;1.37;;;;;;;;;;5042613;27;87260;-53
2022/10/18 02:45:35;;;;;;;0.67;0.67;;;;;;;;;;5042729;28;87125;-52
2022/10/18 02:48:03;;;;;;;1.20;0.90;;;;;;;;;;5042699;27;86920;-53
2022/10/18 02:50:31;;;;;;;1.83;1.40;;;;;;;;;;5041498;27;88041;-52
2022/10/18 02:53:00;;;;;;;1.87;1.10;;;;;;;;;;5041744;27;88835;-52
2022/10/18 02:55:29;;;;;;;5.03;1.83;;;;;;;;;;5041987;28;86998;-53
2022/10/18 02:57:57;;;;;;;2.97;1.00;;;;;;;;;;5042074;27;87109;-53
2022/10/18 03:00:26;;;;;;;1.87;1.00;;;;;;;;;;5041490;27;89021;-52
2022/10/18 03:02:54;;;;;;;2.47;1.27;;;;;;;;;;5041636;27;88202;-52
2022/10/18 03:05:22;;;;;;;1.13;0.90;;;;;;;;;;5040732;27;86836;-53
2022/10/18 03:07:50;;;;;;;1.77;0.90;;;;;;;;;;5042416;27;86328;-52
2022/10/18 03:10:19;;;;;;;2.97;1.03;;;;;;;;;;5042010;27;86869;-52
2022/10/18 03:12:48;;;;;;;2.17;1.20;;;;;;;;;;5042085;28;88472;-52
2022/10/18 03:15:17;;;;;;;3.13;1.00;;;;;;;;;;5041604;27;88024;-52
2022/10/18 03:17:45;;;;;;;3.00;1.53;;;;;;;;;;5041838;27;86945;-52
2022/10/18 03:20:13;;;;;;;2.03;1.23;;;;;;;;;;5041859;27;87790;-52
2022/10/18 03:22:41;;;;;;;1.57;0.93;;;;;;;;;;5041121;27;87623;-52
2022/10/18 03:25:10;;;;;;;1.80;1.23;;;;;;;;;;5049929;27;87805;-52
2022/10/18 03:27:38;;;;;;;3.10;1.37;;;;;;;;;;5041329;27;87072;-52
2022/10/18 03:30:10;;;;;;;1.20;1.10;;;;;;;;;;5043511;27;87110;-52
2022/10/18 03:32:38;;;;;;;0.80;0.67;;;;;;;;;;5054451;27;88023;-52
2022/10/18 03:35:07;;;;;;;2.90;1.20;;;;;;;;;;5042794;27;87065;-52
2022/10/18 03:37:35;;;;;;;1.17;1.07;;;;;;;;;;5042446;27;86992;-52
2022/10/18 03:40:04;;;;;;;0.83;0.80;;;;;;;;;;5041466;28;88875;-52
2022/10/18 03:42:32;;;;;;;0.90;0.77;;;;;;;;;;5041700;27;88658;-52
2022/10/18 03:45:01;;;;;;;1.47;1.07;;;;;;;;;;5042703;27;86772;-52
2022/10/18 03:47:31;;;;;;;0.77;0.77;;;;;;;;;;5041671;27;86872;-52
2022/10/18 03:49:59;;;;;;;1.30;1.10;;;;;;;;;;5041196;27;86941;-52
2022/10/18 03:52:27;;;;;;;1.03;0.90;;;;;;;;;;5041199;27;89807;-52
2022/10/18 03:54:56;;;;;;;1.63;1.30;;;;;;;;;;5043727;27;86958;-52
2022/10/18 03:57:24;;;;;;;1.13;0.97;;;;;;;;;;5062157;27;86908;-52
2022/10/18 03:59:52;;;;;;;1.33;0.87;;;;;;;;;;5054471;27;87862;-52
2022/10/18 04:02:21;;;;;;;1.03;0.90;;;;;;;;;;5041401;27;87969;-52
2022/10/18 04:04:51;;;;;;;1.07;0.97;;;;;;;;;;5041704;27;88066;-52
2022/10/18 04:07:19;;;;;;;1.37;1.30;;;;;;;;;;5061485;27;87085;-52
2022/10/18 04:09:47;;;;;;;0.97;0.93;;;;;;;;;;5061895;27;88277;-52
2022/10/18 04:12:16;;;;;;;0.80;0.80;;;;;;;;;;5059838;27;87078;-52
2022/10/18 04:14:44;;;;;;;0.90;0.90;;;;;;;;;;5047653;27;87098;-52
2022/10/18 04:17:12;;;;;;;1.53;1.17;;;;;;;;;;5041717;27;86880;-52
2022/10/18 04:19:41;;;;;;;1.57;1.00;;;;;;;;;;5044987;28;87961;-53
2022/10/18 04:22:11;;;;;;;2.43;0.93;;;;;;;;;;5044506;27;86271;-53
2022/10/18 04:24:39;;;;;;;1.47;0.80;;;;;;;;;;5045019;27;86860;-53
2022/10/18 04:27:07;;;;;;;1.13;0.77;;;;;;;;;;5044040;27;87085;-52
2022/10/18 04:29:36;;;;;;;1.07;0.80;;;;;;;;;;5044218;27;89099;-53
2022/10/18 04:32:04;;;;;;;3.47;1.57;;;;;;;;;;5043546;27;88603;-52
2022/10/18 04:34:32;;;;;;;1.07;1.07;;;;;;;;;;5044598;27;86828;-53
2022/10/18 04:37:01;;;;;;;0.87;0.73;;;;;;;;;;5044251;27;86973;-53
2022/10/18 04:39:31;;;;;;;2.57;1.07;;;;;;;;;;5044380;27;88352;-52
2022/10/18 04:41:59;;;;;;;2.17;1.10;;;;;;;;;;5043911;27;87515;-52
2022/10/18 04:44:27;;;;;;;1.00;0.90;;;;;;;;;;5044633;27;87028;-52
2022/10/18 04:46:55;;;;;;;1.97;0.70;;;;;;;;;;5044766;27;86353;-52
2022/10/18 04:49:24;;;;;;;0.60;0.60;;;;;;;;;;5044286;27;88027;-52
2022/10/18 04:51:52;;;;;;;2.50;1.00;;;;;;;;;;5043871;27;88881;-52
2022/10/18 04:54:20;;;;;;;1.43;1.13;;;;;;;;;;5043462;27;88003;-52
2022/10/18 04:56:54;;;;;;;1.20;1.10;;;;;;;;;;5043670;27;87155;-52
2022/10/18 04:59:23;;;;;;;1.27;0.80;;;;;;;;;;5044390;27;89065;-52
2022/10/18 05:01:51;;;;;;;1.57;0.80;;;;;;;;;;5043485;27;87601;-52
2022/10/18 05:04:19;;;;;;;1.33;0.97;;;;;;;;;;5044504;27;86854;-53
2022/10/18 05:06:48;;;;;;;1.20;0.83;;;;;;;;;;5044079;27;86991;-52
2022/10/18 05:09:16;;;;;;;1.07;0.87;;;;;;;;;;5044365;27;88134;-52
2022/10/18 05:11:44;;;;;;;0.90;0.90;;;;;;;;;;5043842;27;87847;-52
2022/10/18 05:14:14;;;;;;;0.63;0.63;;;;;;;;;;5044337;27;86743;-52
2022/10/18 05:16:42;;;;;;;4.17;0.70;;;;;;;;;;5043701;27;86961;-53
2022/10/18 05:19:10;;;;;;;2.00;0.73;;;;;;;;;;5043408;27;89252;-52
2022/10/18 05:21:39;;;;;;;1.03;1.03;;;;;;;;;;5043146;27;88638;-52
2022/10/18 05:24:07;;;;;;;0.67;0.67;;;;;;;;;;5043731;27;87038;-52
2022/10/18 05:26:35;;;;;;;1.40;1.07;;;;;;;;;;5043218;27;87102;-52
2022/10/18 05:29:03;;;;;;;2.10;1.00;;;;;;;;;;5042731;27;88477;-53
2022/10/18 05:31:33;;;;;;;0.80;0.80;;;;;;;;;;5043085;27;88778;-52
2022/10/18 05:34:01;;;;;;;2.00;1.10;;;;;;;;;;5043309;27;87005;-52
2022/10/18 05:36:30;;;;;;;2.77;1.50;;;;;;;;;;5043722;27;86195;-52
2022/10/18 05:38:58;;;;;;;1.40;1.03;;;;;;;;;;5043493;27;88516;-52
2022/10/18 05:41:32;;;;;;;1.17;0.70;;;;;;;;;;5042688;27;87730;-52
2022/10/18 05:44:03;;;;;;;1.20;0.90;;;;;;;;;;5042860;27;87948;-52
2022/10/18 05:46:31;;;;;;;1.10;1.00;;;;;;;;;;5043088;27;87021;-53
2022/10/18 05:49:01;;;;;;;3.40;1.00;;;;;;;;;;5042870;28;89228;-52
2022/10/18 05:51:29;;;;;;;1.47;1.10;;;;;;;;;;5042798;28;88716;-52
2022/10/18 05:53:58;;;;;;;2.50;1.10;;;;;;;;;;5043044;27;87562;-52
2022/10/18 05:56:26;;;;;;;1.20;0.87;;;;;;;;;;5043036;27;87108;-52
2022/10/18 05:58:57;;;;;;;1.17;1.07;;;;;;;;;;5043018;27;88162;-53
2022/10/18 06:01:25;;;;;;;3.60;1.13;;;;;;;;;;5043180;27;86569;-52
2022/10/18 06:03:53;;;;;;;0.80;0.80;;;;;;;;;;5042792;28;86857;-52
2022/10/18 06:06:23;;;;;;;1.90;1.03;;;;;;;;;;5042067;27;88098;-52
2022/10/18 06:08:51;;;;;;;0.77;0.77;;;;;;;;;;5042762;27;89910;-52
2022/10/18 06:11:20;;;;;;;1.00;0.80;;;;;;;;;;5041721;27;88692;-52
2022/10/18 06:13:49;;;;;;;4.60;1.10;;;;;;;;;;5043009;27;86991;-51
2022/10/18 06:16:18;;;;;;;1.13;1.10;;;;;;;;;;5042234;27;87016;-52
2022/10/18 06:18:48;;;;;;;1.03;0.93;;;;;;;;;;5042477;27;88000;-52
2022/10/18 06:21:16;;;;;;;3.30;0.80;;;;;;;;;;5044040;27;87850;-52
2022/10/18 06:23:46;;;;;;;1.40;1.30;;;;;;;;;;5046975;27;87028;-52
2022/10/18 06:26:14;;;;;;;1.43;0.63;;;;;;;;;;5060175;27;86403;-52
2022/10/18 06:28:42;;;;;;;0.90;0.90;;;;;;;;;;5051458;27;87758;-52
2022/10/18 06:31:11;;;;;;;1.23;0.90;;;;;;;;;;5048415;27;87863;-52
2022/10/18 06:33:39;;;;;;;2.40;1.23;;;;;;;;;;5041605;27;88022;-52
2022/10/18 06:36:08;;;;;;;1.10;1.00;;;;;;;;;;5048974;27;87206;-54
2022/10/18 06:38:36;;;;;;;3.43;1.00;;;;;;;;;;5054072;27;88013;-55
2022/10/18 06:41:06;;;;;;;5.43;1.50;;;;;;;;;;5057854;27;87855;-53
2022/10/18 06:43:34;;;;;;;2.30;1.33;;;;;;;;;;5052549;27;87096;-54
2022/10/18 06:46:03;;;;;;;2.93;1.40;;;;;;;;;;5053744;27;87216;-54
2022/10/18 06:48:32;;;;;;;1.73;0.90;;;;;;;;;;5062134;27;87939;-54
2022/10/18 06:51:01;;;;;;;2.30;1.53;;;;;;;;;;5045142;27;87738;-54
2022/10/18 06:53:29;;;;;;;2.40;1.17;;;;;;;;;;5054657;27;87078;-54
2022/10/18 06:55:59;;;;;;;1.47;1.33;;;;;;;;;;5040749;28;88319;-54
2022/10/18 06:58:29;;;;;;;1.20;0.90;;;;;;;;;;5040332;27;89333;-54
2022/10/18 07:00:58;;;;;;;3.17;1.47;;;;;;;;;;5040748;27;88908;-55
2022/10/18 07:03:26;;;;;;;1.00;0.90;;;;;;;;;;5040814;27;87132;-54
2022/10/18 07:05:54;;;;;;;2.77;1.30;;;;;;;;;;5047091;27;87041;-54
2022/10/18 07:08:23;;;;;;;1.90;1.40;;;;;;;;;;5046386;27;87939;-54
2022/10/18 07:10:52;;;;;;;2.53;0.97;;;;;;;;;;5041719;27;87906;-54
2022/10/18 07:13:20;;;;;;;3.27;1.00;;;;;;;;;;5055678;27;87099;-54
2022/10/18 07:16:02;;;;;;;1.17;1.00;;;;;;;;;;5055707;27;86279;-54
2022/10/18 07:18:30;;;;;;;3.33;1.63;;;;;;;;;;5062711;27;86922;-54
2022/10/18 07:20:58;;;;;;;1.27;1.03;;;;;;;;;;5062223;27;86888;-54
2022/10/18 07:23:27;;;;;;;1.70;1.10;;;;;;;;;;5062413;27;87931;-54
2022/10/18 07:25:55;;;;;;;1.77;0.77;;;;;;;;;;5062262;27;86871;-54
2022/10/18 07:28:23;;;;;;;1.10;1.00;;;;;;;;;;5062194;27;87956;-54
2022/10/18 07:30:52;;;;;;;3.13;1.50;;;;;;;;;;5061665;27;87919;-54
2022/10/18 07:33:22;;;;;;;1.90;1.17;;;;;;;;;;5061782;27;86932;-54
2022/10/18 07:35:50;;;;;;;0.80;0.80;;;;;;;;;;5062654;27;86830;-54
2022/10/18 07:38:18;;;;;;;1.37;1.23;;;;;;;;;;5062238;27;88271;-54
2022/10/18 07:40:47;;;;;;;1.23;0.90;;;;;;;;;;5062359;27;87783;-54
2022/10/18 07:43:15;;;;;;;2.47;1.00;;;;;;;;;;5062388;27;86912;-54
2022/10/18 07:45:51;;;;;;;2.90;0.90;;;;;;;;;;5062027;27;86900;-54
2022/10/18 07:48:21;;;;;;;1.70;1.33;;;;;;;;;;5061179;27;88899;-54
2022/10/18 07:50:49;;;;;;;4.40;1.63;;;;;;;;;;5061639;27;88731;-54
2022/10/18 07:53:18;;;;;;;2.03;0.87;;;;;;;;;;5065773;27;87090;-54
2022/10/18 07:55:46;;;;;;;1.00;0.90;;;;;;;;;;5066140;27;86880;-54
2022/10/18 07:58:14;;;;;;;1.00;0.83;;;;;;;;;;5065363;27;89134;-54
2022/10/18 08:00:42;;;;;;;1.67;0.97;;;;;;;;;;5065273;27;88926;-54
2022/10/18 08:03:11;;;;;;;1.13;1.03;;;;;;;;;;5065604;27;87050;-54
2022/10/18 08:05:40;;;;;;;5.27;0.87;;;;;;;;;;5065809;27;86353;-54
2022/10/18 08:08:09;;;;;;;1.00;0.90;;;;;;;;;;5065264;27;88127;-54
2022/10/18 08:10:37;;;;;;;2.63;1.10;;;;;;;;;;5064695;27;87825;-54
2022/10/18 08:13:05;;;;;;;1.43;1.30;;;;;;;;;;5064796;27;87655;-54
2022/10/18 08:15:34;;;;;;;3.43;0.77;;;;;;;;;;5065221;27;86952;-54
2022/10/18 08:18:02;;;;;;;4.23;1.20;;;;;;;;;;5065039;27;88919;-54
2022/10/18 08:20:32;;;;;;;2.40;1.13;;;;;;;;;;5064872;27;87704;-54
2022/10/18 08:23:01;;;;;;;1.33;0.70;;;;;;;;;;5065217;27;87114;-54
2022/10/18 08:25:30;;;;;;;1.00;0.90;;;;;;;;;;5064910;27;86897;-54
2022/10/18 08:28:00;;;;;;;0.80;0.80;;;;;;;;;;5064879;27;87751;-55
2022/10/18 08:30:28;;;;;;;1.87;1.10;;;;;;;;;;5065372;27;86387;-55
2022/10/18 08:32:57;;;;;;;2.00;1.57;;;;;;;;;;5065080;27;87017;-53
2022/10/18 08:35:25;;;;;;;0.80;0.50;;;;;;;;;;5065019;27;86996;-55
2022/10/18 08:37:54;;;;;;;1.10;1.00;;;;;;;;;;5063959;27;87954;-55
2022/10/18 08:40:25;;;;;;;1.90;1.37;;;;;;;;;;5064375;27;88316;-55
2022/10/18 08:42:59;;;;;;;0.50;0.50;;;;;;;;;;5065017;27;86976;-55
2022/10/18 08:45:28;;;;;;;1.07;0.93;;;;;;;;;;5065564;27;86975;-56
2022/10/18 08:48:11;;;;;;;0.83;0.60;;;;;;;;;;5064804;27;88106;-59
2022/10/18 08:50:39;;;;;;;1.13;0.83;;;;;;;;;;5064847;27;89189;-56
2022/10/18 08:53:13;;;;;;;1.03;0.80;;;;;;;;;;5065004;27;87898;-55
2022/10/18 08:55:43;;;;;;;0.50;0.50;;;;;;;;;;5065534;27;85974;-55
2022/10/18 08:58:14;;;;;;;2.17;0.80;;;;;;;;;;5064522;27;88092;-56
2022/10/18 09:00:42;;;;;;;0.70;0.70;;;;;;;;;;5064075;27;87538;-55
2022/10/18 09:03:15;;;;;;;2.23;1.23;;;;;;;;;;5063308;27;88009;-54
2022/10/18 09:05:44;;;;;;;1.80;1.00;;;;;;;;;;5064494;27;87235;-54
2022/10/18 09:08:33;;;;;;;1.60;0.73;;;;;;;;;;5064862;27;87965;-54
2022/10/18 09:11:07;;;;;;;1.10;0.70;;;;;;;;;;5061671;27;88907;-55
2022/10/18 09:13:46;;;;;;;1.23;0.90;;;;;;;;;;5064818;27;86769;-54
2022/10/18 09:16:15;;;;;;;1.30;1.20;;;;;;;;;;5064623;27;87037;-54
2022/10/18 09:18:49;;;;;;;2.27;0.90;;;;;;;;;;5064078;27;87847;-54
2022/10/18 09:21:19;;;;;;;1.27;0.97;;;;;;;;;;5064441;27;87752;-54
2022/10/18 09:23:48;;;;;;;0.87;0.53;;;;;;;;;;5064310;27;86951;-54
2022/10/18 09:26:18;;;;;;;1.47;0.70;;;;;;;;;;5064114;27;87083;-54
2022/10/18 09:28:52;;;;;;;2.13;0.80;;;;;;;;;;5063901;27;89188;-54
2022/10/18 09:31:22;;;;;;;3.27;0.87;;;;;;;;;;5063679;27;88699;-54
2022/10/18 09:33:51;;;;;;;0.63;0.63;;;;;;;;;;5064106;27;87098;-54
2022/10/18 09:36:20;;;;;;;1.20;0.67;;;;;;;;;;5064333;27;87099;-54
2022/10/18 09:38:49;;;;;;;7.10;0.77;;;;;;;;;;5064090;27;88135;-54
2022/10/18 09:41:19;;;;;;;0.50;0.50;;;;;;;;;;5063714;27;87521;-54
2022/10/18 09:43:49;;;;;;;1.73;0.70;;;;;;;;;;5064279;27;87040;-54
2022/10/18 09:46:18;;;;;;;0.40;0.40;;;;;;;;;;5064239;27;86249;-54
2022/10/18 09:48:47;;;;;;;0.67;0.60;;;;;;;;;;5063324;27;88019;-54
2022/10/18 09:51:20;;;;;;;0.40;0.40;;;;;;;;;;5063879;27;89820;-54
2022/10/18 09:53:54;;;;;;;1.40;0.50;;;;;;;;;;5063368;27;87961;-54
2022/10/18 09:56:24;;;;;;;0.60;0.50;;;;;;;;;;5063790;27;86982;-54
2022/10/18 09:58:53;;;;;;;0.33;0.33;;;;;;;;;;5063931;27;88964;-54
2022/10/18 10:01:21;;;;;;;0.80;0.77;;;;;;;;;;5063242;27;87754;-54
2022/10/18 10:03:50;;;;;;;1.33;0.60;;;;;;;;;;5064104;27;86997;-54
2022/10/18 10:06:22;;;;;;;1.00;0.67;;;;;;;;;;5063660;27;86874;-54
2022/10/18 10:08:50;;;;;;;0.80;0.60;;;;;;;;;;5063483;27;87875;-54
2022/10/18 10:11:33;;;;;;;0.73;0.73;;;;;;;;;;5064050;27;87746;-54
2022/10/18 10:14:13;;;;;;;0.37;0.37;;;;;;;;;;5063841;27;86717;-54
2022/10/18 10:16:50;;;;;;;0.90;0.60;;;;;;;;;;5063399;27;86885;-54
2022/10/18 10:19:19;;;;;;;0.40;0.40;;;;;;;;;;5062514;27;89019;-54
2022/10/18 10:21:48;;;;;;;2.20;0.50;;;;;;;;;;5063341;27;88338;-54
2022/10/18 10:24:19;;;;;;;0.50;0.50;;;;;;;;;;5063671;27;86825;-54
2022/10/18 10:26:49;;;;;;;0.40;0.40;;;;;;;;;;5063175;27;87096;-54
2022/10/18 10:29:36;;;;;;;0.87;0.60;;;;;;;;;;5062782;27;88239;-54
2022/10/18 10:32:12;;;;;;;0.50;0.50;;;;;;;;;;5062928;27;86868;-54
2022/10/18 10:34:41;;;;;;;0.67;0.60;;;;;;;;;;5063383;27;87006;-54
2022/10/18 10:37:22;;;;;;;0.60;0.60;;;;;;;;;;5063686;27;86205;-54
2022/10/18 10:39:57;;;;;;;0.40;0.40;;;;;;;;;;5062581;27;88258;-54
2022/10/18 10:43:06;;;;;;;0.40;0.40;;;;;;;;;;5062744;27;87860;-54
2022/10/18 10:46:02;;;;;;;0.73;0.60;;;;;;;;;;5062893;27;87965;-54
2022/10/18 10:48:32;;;;;;;0.40;0.40;;;;;;;;;;5063216;27;87106;-54
2022/10/18 10:51:02;;;;;;;1.00;0.70;;;;;;;;;;5062964;27;88046;-54
2022/10/18 10:53:31;;;;;;;1.90;0.60;;;;;;;;;;5062534;27;88199;-54
2022/10/18 10:55:59;;;;;;;1.17;0.50;;;;;;;;;;5063195;27;86766;-54
2022/10/18 10:58:28;;;;;;;0.40;0.40;;;;;;;;;;5063219;27;86947;-54
2022/10/18 11:00:57;;;;;;;0.43;0.43;;;;;;;;;;5062132;27;88205;-54
2022/10/18 11:03:27;;;;;;;0.30;0.30;;;;;;;;;;5062986;27;88818;-54
2022/10/18 11:05:59;;;;;;;0.73;0.50;;;;;;;;;;5062993;27;86908;-55
2022/10/18 11:08:28;;;;;;;0.50;0.30;;;;;;;;;;5063111;27;86990;-54
2022/10/18 11:11:01;;;;;;;0.40;0.40;;;;;;;;;;5062038;27;89139;-54
2022/10/18 11:13:35;;;;;;;0.37;0.37;;;;;;;;;;5062598;27;88673;-54
2022/10/18 11:16:04;;;;;;;1.27;0.90;;;;;;;;;;5062769;27;87166;-54
2022/10/18 11:18:34;;;;;;;2.40;0.90;;;;;;;;;;5062710;27;87093;-54
2022/10/18 11:21:06;;;;;;;1.00;0.50;;;;;;;;;;5062490;27;87863;-54
2022/10/18 11:23:35;;;;;;;0.40;0.40;;;;;;;;;;5062342;27;88286;-54
2022/10/18 11:26:07;;;;;;;0.63;0.63;;;;;;;;;;5061513;27;86885;-54
2022/10/18 11:28:40;;;;;;;0.83;0.50;;;;;;;;;;5062417;27;86117;-54
2022/10/18 11:31:11;;;;;;;0.70;0.40;;;;;;;;;;5061861;27;87955;-54
2022/10/18 11:33:45;;;;;;;1.37;0.67;;;;;;;;;;5062127;27;87951;-54
2022/10/18 11:36:34;;;;;;;0.77;0.50;;;;;;;;;;5061922;27;87831;-54
2022/10/18 11:39:04;;;;;;;1.00;0.60;;;;;;;;;;5062200;27;87034;-54
2022/10/18 11:41:33;;;;;;;0.50;0.50;;;;;;;;;;5062067;27;87980;-54
2022/10/18 11:44:02;;;;;;;1.03;0.40;;;;;;;;;;5062431;27;87797;-55
2022/10/18 11:46:40;;;;;;;0.73;0.50;;;;;;;;;;5062220;27;87049;-54
2022/10/18 11:49:13;;;;;;;1.50;0.40;;;;;;;;;;5061790;27;87043;-54
2022/10/18 11:51:45;;;;;;;1.40;0.63;;;;;;;;;;5061443;27;88998;-54
2022/10/18 11:54:41;;;;;;;1.00;0.90;;;;;;;;;;5062228;27;87634;-54
2022/10/18 11:57:12;;;;;;;0.27;0.27;;;;;;;;;;5062449;27;86873;-53
2022/10/18 11:59:43;;;;;;;1.10;0.87;;;;;;;;;;5062314;27;86893;-54
2022/10/18 12:02:20;;;;;;;0.30;0.30;;;;;;;;;;5061537;27;89210;-54
2022/10/18 12:04:51;;;;;;;0.30;0.30;;;;;;;;;;5062138;27;88728;-54
2022/10/18 12:07:41;;;;;;;0.40;0.40;;;;;;;;;;5062371;27;87041;-54
2022/10/18 12:10:09;;;;;;;0.40;0.40;;;;;;;;;;5061880;27;87033;-54
2022/10/18 12:12:38;;;;;;;0.50;0.40;;;;;;;;;;5061425;27;88122;-54
2022/10/18 12:15:07;;;;;;;1.10;0.67;;;;;;;;;;5061390;27;88060;-53
2022/10/18 12:17:36;;;;;;;0.93;0.67;;;;;;;;;;5061632;27;86965;-53
2022/10/18 12:20:17;;;;;;;0.43;0.43;;;;;;;;;;5061956;27;86339;-54
2022/10/18 12:22:46;;;;;;;1.50;0.53;;;;;;;;;;5061189;27;87877;-54
2022/10/18 12:25:15;;;;;;;2.73;0.63;;;;;;;;;;5061270;27;87588;-53
2022/10/18 12:27:44;;;;;;;1.47;0.43;;;;;;;;;;5061177;27;88026;-54
2022/10/18 12:30:15;;;;;;;0.83;0.40;;;;;;;;;;5061467;27;86914;-53
2022/10/18 12:32:43;;;;;;;0.60;0.60;;;;;;;;;;5061215;27;88996;-53
2022/10/18 12:35:32;;;;;;;0.60;0.47;;;;;;;;;;5061373;27;88396;-54
2022/10/18 12:38:03;;;;;;;0.40;0.40;;;;;;;;;;5062288;27;86764;-54
2022/10/18 12:40:34;;;;;;;0.33;0.33;;;;;;;;;;5064951;27;86891;-54
2022/10/18 12:43:03;;;;;;;1.33;0.40;;;;;;;;;;5064976;27;87882;-53
2022/10/18 12:45:32;;;;;;;1.23;0.70;;;;;;;;;;5065099;27;87557;-53
2022/10/18 12:48:00;;;;;;;2.90;0.60;;;;;;;;;;5064859;27;87074;-53
2022/10/18 12:50:35;;;;;;;0.47;0.47;;;;;;;;;;5064967;27;87047;-53
2022/10/18 12:53:07;;;;;;;0.50;0.40;;;;;;;;;;5064572;27;88825;-54
2022/10/18 12:55:36;;;;;;;0.40;0.40;;;;;;;;;;5064712;27;88540;-54
2022/10/18 12:58:06;;;;;;;2.53;0.43;;;;;;;;;;5064941;27;87008;-54
2022/10/18 13:00:53;;;;;;;0.70;0.33;;;;;;;;;;5064674;27;87013;-54
2022/10/18 13:03:41;;;;;;;0.13;0.13;;;;;;;;;;5064310;27;88287;-54
2022/10/18 13:06:11;;;;;;;1.70;0.50;;;;;;;;;;5064082;27;90217;-54
2022/10/18 13:08:40;;;;;;;0.33;0.33;;;;;;;;;;5064900;27;86992;-53
2022/10/18 13:11:25;;;;;;;0.50;0.50;;;;;;;;;;5065216;27;86066;-54
2022/10/18 13:14:01;;;;;;;0.53;0.40;;;;;;;;;;5064725;27;88643;-53
2022/10/18 13:16:36;;;;;;;0.30;0.30;;;;;;;;;;5064458;27;87820;-54
2022/10/18 13:19:25;;;;;;;0.20;0.20;;;;;;;;;;5064036;27;88053;-53
2022/10/18 13:21:59;;;;;;;2.53;0.97;;;;;;;;;;5061361;27;87215;-54
2022/10/18 13:24:30;;;;;;;3.27;0.67;;;;;;;;;;5064057;27;88102;-54
2022/10/18 13:27:03;;;;;;;0.30;0.30;;;;;;;;;;5063882;27;88846;-53
2022/10/18 13:29:56;;;;;;;0.23;0.23;;;;;;;;;;5064331;27;87049;-54
2022/10/18 13:32:25;;;;;;;2.03;0.40;;;;;;;;;;5063961;27;86957;-54
2022/10/18 13:34:53;;;;;;;0.40;0.40;;;;;;;;;;5063858;27;88079;-54
2022/10/18 13:37:24;;;;;;;0.73;0.40;;;;;;;;;;5064552;27;87859;-54
2022/10/18 13:39:52;;;;;;;0.50;0.50;;;;;;;;;;5063704;27;87029;-53
2022/10/18 13:42:29;;;;;;;0.63;0.50;;;;;;;;;;5063400;27;87044;-54
2022/10/18 13:45:12;;;;;;;0.50;0.20;;;;;;;;;;5063036;27;89165;-54
2022/10/18 13:47:41;;;;;;;0.80;0.57;;;;;;;;;;5063810;27;88417;-54
2022/10/18 13:50:33;;;;;;;0.30;0.23;;;;;;;;;;5063740;27;86948;-54
2022/10/18 13:53:19;;;;;;;1.27;0.40;;;;;;;;;;5064249;27;87078;-54
2022/10/18 13:56:02;;;;;;;0.43;0.43;;;;;;;;;;5063877;27;89204;-54
2022/10/18 13:58:31;;;;;;;0.60;0.50;;;;;;;;;;5063655;27;87779;-54
2022/10/18 14:01:03;;;;;;;2.43;0.53;;;;;;;;;;5063642;27;87064;-53
2022/10/18 14:03:36;;;;;;;0.30;0.30;;;;;;;;;;5064573;27;86344;-54
2022/10/18 14:06:23;;;;;;;2.10;0.40;;;;;;;;;;5063747;27;90544;-54
2022/10/18 14:08:53;;;;;;;0.23;0.23;;;;;;;;;;5063234;27;88023;-54
2022/10/18 14:11:25;;;;;;;0.30;0.30;;;;;;;;;;5063386;27;87700;-54
2022/10/18 14:13:55;;;;;;;1.03;0.40;;;;;;;;;;5063671;27;86969;-54
2022/10/18 14:16:27;;;;;;;0.20;0.20;;;;;;;;;;5063480;27;86919;-54
2022/10/18 14:18:57;;;;;;;0.47;0.40;;;;;;;;;;5063524;27;87639;-54
2022/10/18 14:21:25;;;;;;;1.50;0.50;;;;;;;;;;5063495;27;86983;-54
2022/10/18 14:23:58;;;;;;;0.30;0.30;;;;;;;;;;5063657;27;87005;-54
2022/10/18 14:26:28;;;;;;;2.43;0.37;;;;;;;;;;5063104;27;87892;-54
2022/10/18 14:29:03;;;;;;;0.50;0.37;;;;;;;;;;5063436;27;87788;-54
2022/10/18 14:31:31;;;;;;;0.40;0.40;;;;;;;;;;5063012;27;86942;-54
2022/10/18 14:34:00;;;;;;;0.70;0.30;;;;;;;;;;5063169;27;86978;-54
2022/10/18 14:36:29;;;;;;;1.17;0.30;;;;;;;;;;5062116;27;89115;-54
2022/10/18 14:38:59;;;;;;;0.30;0.30;;;;;;;;;;5063065;27;88513;-54
2022/10/18 14:41:29;;;;;;;0.20;0.20;;;;;;;;;;5063303;27;87052;-54
2022/10/18 14:44:10;;;;;;;7.33;0.83;;;;;;;;;;5062838;27;86968;-54
2022/10/18 14:46:42;;;;;;;4.07;0.40;;;;;;;;;;5063078;27;88154;-54
2022/10/18 14:49:10;;;;;;;0.30;0.30;;;;;;;;;;5062959;27;88860;-53
2022/10/18 14:51:39;;;;;;;0.40;0.23;;;;;;;;;;5062979;27;86873;-54
2022/10/18 14:54:08;;;;;;;0.53;0.30;;;;;;;;;;5063311;27;86376;-54
2022/10/18 14:56:38;;;;;;;0.30;0.30;;;;;;;;;;5062446;27;88094;-54
2022/10/18 14:59:10;;;;;;;0.40;0.40;;;;;;;;;;5062777;27;88968;-54
2022/10/18 15:01:39;;;;;;;0.63;0.60;;;;;;;;;;5060596;27;88048;-53
2022/10/18 15:04:09;;;;;;;0.30;0.30;;;;;;;;;;5062531;27;87059;-54